| Date | Time | Temp. (oF) | Dew Point (oF) | Rel. Hum. (%) | Press. (in.) | Wind Dir. | Wind Speed (mph) | Hourly Rainfall (in.) |
|
|---|---|---|---|---|---|---|---|---|---|
| 1 | 04/16 | 00:00 | 52 | 28 | 40 | 30.34 | E | 0 | 0.00 |
| 2 | 04/15 | 23:00 | 54 | 28 | 37 | 30.32 | NNE | 0 | 0.00 |
| 3 | 04/15 | 22:00 | 54 | 28 | 37 | 30.30 | N | 0 | 0.00 |
| 4 | 04/15 | 21:00 | 59 | 26 | 29 | 30.28 | NNW | 0 | 0.00 |
| 5 | 04/15 | 20:00 | 61 | 26 | 27 | 30.25 | W | 0 | 0.00 |
| 6 | 04/15 | 19:00 | 65 | 24 | 22 | 30.22 | N | 0 | 0.00 |
| 7 | 04/15 | 18:00 | 66 | 24 | 21 | 30.21 | N | 0 | 0.00 |
| 8 | 04/15 | 17:00 | 66 | 26 | 23 | 30.20 | NE | 7 | 0.00 |
| 9 | 04/15 | 16:00 | 66 | 27 | 24 | 30.20 | WNW | 4 | 0.00 |
| 10 | 04/15 | 15:00 | 65 | 26 | 24 | 30.21 | NE | 1 | 0.00 |
| 11 | 04/15 | 14:00 | 63 | 26 | 25 | 30.23 | NNE | 10 | 0.00 |
| 12 | 04/15 | 13:00 | 62 | 23 | 23 | 30.24 | NNE | 0 | 0.00 |
| 13 | 04/15 | 12:00 | 60 | 23 | 25 | 30.23 | NNE | 14 | 0.00 |
| 14 | 04/15 | 11:00 | 58 | 25 | 29 | 30.23 | NNE | 11 | 0.00 |
| 15 | 04/15 | 10:00 | 55 | 23 | 29 | 30.22 | NNE | 11 | 0.00 |
| 16 | 04/15 | 09:00 | 53 | 34 | 49 | 30.22 | NNW | 6 | 0.00 |
| 17 | 04/15 | 08:00 | 44 | 41 | 91 | 30.22 | W | 0 | 0.00 |
| 18 | 04/15 | 07:00 | 42 | 37 | 84 | 30.19 | WSW | 0 | 0.00 |
| 19 | 04/15 | 06:00 | 40 | 38 | 94 | 30.17 | W | 0 | 0.00 |
| 20 | 04/15 | 05:00 | 40 | 38 | 94 | 30.16 | S | 0 | 0.00 |
| 21 | 04/15 | 04:00 | 42 | 39 | 92 | 30.14 | S | 0 | 0.00 |
| 22 | 04/15 | 03:00 | 44 | 40 | 88 | 30.13 | SW | 0 | 0.00 |
| 23 | 04/15 | 02:00 | 46 | 40 | 80 | 30.13 | WSW | 0 | 0.00 |
| 24 | 04/15 | 01:00 | 50 | 42 | 76 | 30.12 | WSW | 0 | 0.00 |